Terminal Aerodrome Forecast
Issued by NWS

Home | Current Version | Previous Version | Text Only | Print | Product List | Glossary On
Versions: 1 2 3 4 5 6 7 8 9 10 11 12 13
000
FTUS44 KLZK 271745
TAFLIT
TAF
KLIT 271745Z 2718/2818 18005KT P6SM VCTS SCT040CB BKN080
      TEMPO 2718/2722 5SM -TSRA SCT025 OVC035CB
     FM280600 VRB03KT P6SM SCT100 SCT250
     FM281000 24004KT P6SM OVC100
      TEMPO 2810/2814 5SM BR SCT008
     FM281400 24006KT P6SM VCSH SCT060 OVC080=

USA.gov is the U.S. government's official web portal to all federal, state and local government web resources and services.